Airfield :
LOGIN :

Register | Disclaimer

   EN    FR    IT 

 










Legend :    VFR   Marginal VFR   IFR   Intensive IFR   Very Intensive IFR
Visi :
Ceiling :
>= 8 km
>= 3000ft
5 to 8 km
1000 to 3000 ft
1500m to 5 km
500 to 1000 ft
800 to 1500m
200 to 500 ft
< 800m
< 200 ft
Symbols :   Thunderstorms  Fog  Heavy snow  Heavy precipitations  Wind > 20 kt
SIGMETs :     Misc.  Thunderstorms  Icing  Turbulence  Mountain Waves  Volcanic Ashes






- Airport Elevation : 1090 ft
- IATA code : CFE


LFLC - Clermont-Ferrand Auvergne

CURRENT METAR :
  • 280600Z AUTO 14003KT 060V180 9999 BKN033 BKN044 OVC064 12/08 Q1015 NOSIG

EXPIRED METARs :
  • 280530Z AUTO 17004KT 120V200 9999 BKN033 BKN040 OVC046 12/08 Q1015 TEMPO 26010KT
  • 280500Z AUTO 19006KT 160V220 9999 BKN036 BKN047 OVC062 12/08 Q1015 NOSIG
  • 280430Z AUTO 19010KT 160V230 9999 BKN037 BKN048 OVC070 12/08 Q1014 NOSIG
  • 280400Z AUTO 20008KT 9999 BKN037 BKN058 BKN076 12/08 Q1014 TEMPO 26010KT
  • 280330Z AUTO 18011KT 9999 SCT036 BKN066 BKN082 12/08 Q1013 TEMPO 26010KT

TAF TAF LFLC
Valid from the 28 at 06:00 until the 29 at 06:00 UTC


280500Z 2806/2906 24008KT 9999 BKN040
BECMG 2806/2808 18005KT SCT045
PROB40
TEMPO 2812/2816 SHRA SCT025TCU BKN035
FM281600 23010KT CAVOK
TEMPO 2816/2824 25015G25KT
BECMG 2820/2823 BKN035
ATIS : +33 4 73 62 74 38



MET'MAP, your aeronautical weather chart ! - Copyright ORBIFLY December 2007 - Disclaimer

ORBIFLY MET'MAP TEAM :

Programming & Development : Alexandra Zaïnal
Concept & original design : Baudouin d'Aumeries
Assistance for programming : Marc-Olivier Méhu
Technical & hardware support : Manuel Goepfert

Contact : metmap@orbifly.com




SOURCES & CREDITS :

   NOAA